DQNA4: Rolling Fork River At Dequeen

                                SHEF ID:       DQNA4     Rolling Fork near DeQueen, AR
STATION TYPE: Stream Gauge

PRECIP STAGE RIV-FLOW BAT-LOAD
in ft cfs volt
Ccp-Rev Ccp-Rev Ccp-Rev Ccp-Rev
(America/Chicago)
02/20 00:00 0.00 8.40 1625 12.73
02/20 01:00 0.00 8.40 1625 12.73
02/20 02:00 0.00 8.40 1625 12.65
02/20 03:00 0.00 8.40 1625 12.65
02/20 04:00 0.00 8.40 1625 12.65
02/20 05:00 0.00 8.40 1625 12.65
02/20 06:00 0.00 8.39 1622 12.57
02/20 07:00 0.00 8.39 1622 12.57
02/20 08:00 0.00 8.39 1622 12.57
02/20 09:00 0.00 8.38 1619 13.21
02/20 10:00 0.00 8.37 1615 13.76
02/20 11:00 0.00 8.22 1569 14.00
02/20 12:00 0.00 7.92 1478 13.60
02/20 13:00 0.00 7.64 1399 13.44
02/20 14:00 0.00 7.31 1307 13.68
02/20 15:00 0.00 6.91 1195 13.68
02/20 16:00 0.00 6.57 1100 13.37
02/20 17:00 0.00 6.26 1013 13.44
02/20 18:00 0.00 5.93 920 13.29
02/20 19:00 0.00 5.67 848 12.89
02/20 20:00 0.00 5.50 800 12.81
02/20 21:00 0.00 5.40 772 12.81
02/20 22:00 0.00 5.35 758 12.81
02/20 23:00 0.00 5.31 747 12.73
Data processed at Sat 21Feb2026 05:11 GMT

NOTICE: If you are parsing this page

Please convert to using our Data API. Starting early 2026 we will be migrating to: https://water.usace.army.mil with modern pages rendered in JavaScript. When this migration completes you will no longer be able to scrape this page! CWMSDataAPI (CDA)

Timeseries IDs (TSIDs)

TSIDs used from left to right in the data table
DEQR.Precip-Inc.Total.1Hour.1Hour.Ccp-Rev
DEQR.Stage.Inst.1Hour.0.Ccp-Rev
DEQR.Flow.Inst.1Hour.0.Ccp-Rev
DEQR.Volt-Battery Load.Inst.1Hour.0.Ccp-Rev

                            

All information presented herein is the property of the government of the United States of America and may be revised or deleted at any time without prior notice. Dissemination of this information without the expressed written consent of the Public Affairs Office, Tulsa District U.S. Army Corps of Engineers is strictly prohibited. These data are gathered electronically and, as presented, have NOT undergone any form of quality control. These data are NOT guaranteed to be valid or correct.